createdAt,value
2018-10-11T00:01:58.321Z,54.10
2018-10-11T00:04:27.155Z,54.10
2018-10-11T00:06:56.028Z,54.80
2018-10-11T00:09:24.853Z,54.80
2018-10-11T00:11:53.762Z,54.50
2018-10-11T00:14:22.660Z,54.90
2018-10-11T00:16:51.522Z,55.60
2018-10-11T00:19:20.740Z,56.00
2018-10-11T00:21:50.367Z,55.90
2018-10-11T00:24:19.203Z,55.90
2018-10-11T00:26:48.012Z,55.90
2018-10-11T00:29:16.850Z,55.80
2018-10-11T00:31:45.683Z,56.50
2018-10-11T00:34:14.541Z,57.20
2018-10-11T00:36:43.400Z,57.90
2018-10-11T00:39:12.247Z,58.80
2018-10-11T00:41:41.112Z,59.20
2018-10-11T00:44:10.079Z,59.20
2018-10-11T00:46:38.918Z,59.30
2018-10-11T00:49:07.802Z,59.60
2018-10-11T00:51:36.709Z,60.00
2018-10-11T00:54:05.538Z,60.00
2018-10-11T00:56:34.476Z,60.10
2018-10-11T00:59:03.623Z,61.00
2018-10-11T01:01:32.588Z,61.60
2018-10-11T01:04:01.437Z,62.30
2018-10-11T01:06:30.290Z,63.90
2018-10-11T01:08:59.164Z,62.90
2018-10-11T01:11:28.008Z,63.30
2018-10-11T01:13:56.859Z,63.30
2018-10-11T01:16:25.718Z,63.40
2018-10-11T01:18:54.569Z,63.60
2018-10-11T01:21:23.394Z,63.50
2018-10-11T01:23:52.441Z,63.60
2018-10-11T01:26:21.414Z,63.80
2018-10-11T01:28:50.278Z,63.50
2018-10-11T01:31:24.292Z,64.20
2018-10-11T01:33:53.595Z,64.10
2018-10-11T01:36:22.692Z,64.40
2018-10-11T01:38:53.336Z,64.20
2018-10-11T01:41:22.919Z,64.00
2018-10-11T01:43:51.799Z,64.00
2018-10-11T01:46:20.838Z,64.10
2018-10-11T01:48:49.669Z,63.80
2018-10-11T01:51:18.527Z,63.80
2018-10-11T01:53:47.464Z,63.90
2018-10-11T01:56:16.345Z,63.80
2018-10-11T01:58:45.170Z,64.70
2018-10-11T02:01:14.011Z,63.30
2018-10-11T02:03:42.893Z,63.10
2018-10-11T02:06:11.816Z,63.10
2018-10-11T02:08:40.682Z,63.00
2018-10-11T02:11:09.593Z,62.80
2018-10-11T02:13:38.494Z,62.90
2018-10-11T02:16:07.349Z,62.80
2018-10-11T02:18:36.183Z,62.60
2018-10-11T02:21:05.128Z,62.30
2018-10-11T02:23:34.013Z,62.00
2018-10-11T02:26:02.868Z,62.90
2018-10-11T02:28:31.741Z,63.30
2018-10-11T02:31:00.615Z,63.40
2018-10-11T02:33:29.529Z,63.50
2018-10-11T02:35:58.446Z,64.30
2018-10-11T02:38:27.523Z,64.70
2018-10-11T02:40:56.479Z,65.30
2018-10-11T02:43:25.354Z,65.00
2018-10-11T02:45:54.239Z,65.20
2018-10-11T02:48:23.105Z,65.40
2018-10-11T02:50:52.019Z,65.60
2018-10-11T02:53:20.984Z,65.60
2018-10-11T02:55:49.901Z,65.70
2018-10-11T02:58:36.062Z,66.00
2018-10-11T03:01:05.055Z,66.30
2018-10-11T03:03:34.052Z,66.10
2018-10-11T03:06:03.047Z,65.50
2018-10-11T03:08:32.018Z,65.70
2018-10-11T03:11:00.906Z,66.40
2018-10-11T03:13:29.839Z,66.10
2018-10-11T03:15:58.760Z,65.90
2018-10-11T03:18:27.692Z,67.10
2018-10-11T03:20:56.533Z,66.80
2018-10-11T03:23:25.382Z,66.10
2018-10-11T03:25:54.232Z,66.00
2018-10-11T03:28:23.092Z,65.60
2018-10-11T03:30:51.954Z,65.70
2018-10-11T03:33:20.814Z,66.80
2018-10-11T03:35:49.662Z,65.60
2018-10-11T03:38:18.518Z,65.20
2018-10-11T03:40:47.391Z,65.10
2018-10-11T03:43:16.226Z,65.60
2018-10-11T03:45:45.096Z,65.60
2018-10-11T03:48:13.931Z,65.60
2018-10-11T03:50:42.794Z,66.00
2018-10-11T03:53:11.623Z,66.30
2018-10-11T03:55:40.447Z,66.10
2018-10-11T03:58:09.326Z,65.50
2018-10-11T04:00:38.201Z,65.60
2018-10-11T04:03:07.085Z,65.40
2018-10-11T04:05:36.005Z,65.60
2018-10-11T04:08:04.907Z,66.40
2018-10-11T04:10:33.818Z,66.90
2018-10-11T04:13:02.736Z,67.00
2018-10-11T04:15:31.682Z,67.10
2018-10-11T04:18:00.599Z,67.00
2018-10-11T04:20:29.502Z,67.00
2018-10-11T04:22:58.423Z,67.00
2018-10-11T04:25:27.887Z,67.00
2018-10-11T04:27:56.999Z,67.00
2018-10-11T04:30:26.265Z,67.00
2018-10-11T04:32:55.503Z,67.00
2018-10-11T04:35:24.413Z,67.00
2018-10-11T04:37:53.322Z,67.00
2018-10-11T04:40:22.188Z,67.00
2018-10-11T04:42:51.072Z,66.90
2018-10-11T04:45:19.987Z,68.10
2018-10-11T04:47:49.046Z,66.90
2018-10-11T04:50:17.960Z,66.90
2018-10-11T04:52:46.869Z,66.90
2018-10-11T04:55:15.716Z,66.90
2018-10-11T04:57:44.660Z,66.90
2018-10-11T05:00:13.486Z,66.80
2018-10-11T05:02:42.388Z,66.80
2018-10-11T05:05:11.304Z,66.80
2018-10-11T05:07:40.134Z,66.80
2018-10-11T05:10:09.048Z,66.80
2018-10-11T05:12:37.914Z,66.80
2018-10-11T05:15:07.424Z,66.80
2018-10-11T05:17:36.525Z,66.70
2018-10-11T05:20:05.709Z,66.70
2018-10-11T05:22:34.546Z,66.80
2018-10-11T05:25:03.430Z,67.00
2018-10-11T05:27:32.247Z,66.80
2018-10-11T05:30:01.123Z,66.80
2018-10-11T05:32:30.359Z,66.80
2018-10-11T05:34:59.226Z,66.80
2018-10-11T05:37:28.082Z,66.80
2018-10-11T05:39:56.930Z,66.80
2018-10-11T05:42:25.830Z,66.90
2018-10-11T05:45:04.950Z,66.90
2018-10-11T05:47:33.814Z,66.90
2018-10-11T05:50:02.830Z,66.90
2018-10-11T05:52:31.646Z,66.90
2018-10-11T05:55:00.526Z,66.60
2018-10-11T05:57:29.406Z,66.80
2018-10-11T05:59:58.422Z,66.10
2018-10-11T06:02:27.603Z,65.20
2018-10-11T06:04:56.720Z,64.80
2018-10-11T06:07:25.600Z,63.90
2018-10-11T06:09:54.474Z,64.60
2018-10-11T06:12:23.311Z,62.60
2018-10-11T06:14:52.119Z,62.20
2018-10-11T06:17:20.953Z,62.00
2018-10-11T06:19:49.770Z,61.50
2018-10-11T06:22:18.600Z,61.20
2018-10-11T06:24:47.537Z,60.40
2018-10-11T06:27:16.384Z,60.30
2018-10-11T06:29:45.232Z,59.70
2018-10-11T06:32:14.105Z,59.00
2018-10-11T06:34:42.959Z,58.80
2018-10-11T06:37:11.811Z,58.00
2018-10-11T06:39:40.617Z,57.60
2018-10-11T06:42:09.503Z,57.00
2018-10-11T06:44:45.065Z,55.40
2018-10-11T06:47:16.815Z,55.40
2018-10-11T06:49:46.322Z,54.20
2018-10-11T06:52:15.101Z,53.00
2018-10-11T06:54:44.240Z,51.60
2018-10-11T06:57:13.152Z,50.60
2018-10-11T06:59:42.043Z,49.30
2018-10-11T07:02:10.874Z,48.50
2018-10-11T07:04:39.798Z,47.40
2018-10-11T07:07:08.680Z,46.20
2018-10-11T07:09:37.542Z,44.50
2018-10-11T07:12:06.451Z,43.10
2018-10-11T07:14:35.479Z,43.30
2018-10-11T07:17:04.377Z,42.30
2018-10-11T07:19:33.347Z,41.50
2018-10-11T07:22:02.092Z,41.80
2018-10-11T07:24:30.971Z,41.20
2018-10-11T07:26:59.801Z,41.30
2018-10-11T07:29:28.627Z,40.20
2018-10-11T07:31:57.494Z,38.60
2018-10-11T07:34:27.326Z,37.40
2018-10-11T07:36:56.120Z,36.70
2018-10-11T07:39:24.939Z,36.30
2018-10-11T07:41:53.795Z,36.00
2018-10-11T07:44:22.647Z,35.30
2018-10-11T07:46:51.503Z,34.20
2018-10-11T07:49:20.404Z,33.40
2018-10-11T07:51:49.239Z,33.80
2018-10-11T07:54:18.070Z,32.60
2018-10-11T07:56:47.027Z,32.00
2018-10-11T07:59:15.866Z,32.80
2018-10-11T08:01:44.721Z,30.50
2018-10-11T08:04:13.555Z,29.80
2018-10-11T08:06:42.417Z,30.40
2018-10-11T08:09:11.330Z,30.20
2018-10-11T08:11:40.246Z,29.30
2018-10-11T08:14:16.554Z,28.10
2018-10-11T08:16:45.515Z,27.90
2018-10-11T08:19:14.588Z,27.20
2018-10-11T08:21:43.872Z,27.50
2018-10-11T08:24:12.764Z,27.10
2018-10-11T08:26:41.741Z,27.30
2018-10-11T08:29:10.595Z,25.80
2018-10-11T08:31:39.423Z,25.40
2018-10-11T08:34:08.583Z,25.10
2018-10-11T08:36:37.427Z,24.60
2018-10-11T08:39:09.637Z,24.50
2018-10-11T08:41:38.876Z,23.40
2018-10-11T08:44:08.423Z,23.90
2018-10-11T08:46:37.302Z,22.80
2018-10-11T08:49:06.176Z,22.60
2018-10-11T08:51:34.984Z,22.10
2018-10-11T08:54:15.604Z,21.30
2018-10-11T08:56:44.535Z,20.00
2018-10-11T08:59:13.436Z,20.00
2018-10-11T09:01:42.206Z,19.60
2018-10-11T09:04:11.077Z,19.00
2018-10-11T09:06:39.883Z,18.30
2018-10-11T09:09:09.765Z,17.50
2018-10-11T09:11:38.603Z,16.50
2018-10-11T09:14:07.563Z,16.20
2018-10-11T09:16:36.441Z,14.90
2018-10-11T09:19:05.359Z,14.50
2018-10-11T09:21:34.223Z,14.40
2018-10-11T09:24:03.067Z,12.50
2018-10-11T09:26:31.938Z,13.20
2018-10-11T09:29:00.774Z,11.90
2018-10-11T09:31:29.610Z,11.60
2018-10-11T09:33:58.430Z,10.50
2018-10-11T09:36:27.366Z,10.60
2018-10-11T09:38:56.114Z,11.10
2018-10-11T09:41:24.946Z,9.30
2018-10-11T09:43:53.823Z,8.40
2018-10-11T09:46:22.652Z,8.70
2018-10-11T09:48:51.643Z,8.50
2018-10-11T09:51:20.371Z,7.90
2018-10-11T09:53:49.208Z,8.40
2018-10-11T09:56:18.063Z,7.80
2018-10-11T09:58:46.916Z,6.60
2018-10-11T10:01:21.055Z,6.60
2018-10-11T10:03:49.930Z,7.60
2018-10-11T10:06:18.946Z,6.80
2018-10-11T10:08:47.783Z,7.00
2018-10-11T10:11:16.614Z,5.80
2018-10-11T10:13:45.498Z,5.20
2018-10-11T10:16:14.377Z,5.60
2018-10-11T10:18:43.197Z,5.50
2018-10-11T10:21:12.110Z,4.40
2018-10-11T10:23:40.899Z,4.70
2018-10-11T10:26:09.736Z,4.10
2018-10-11T10:28:38.599Z,4.10
2018-10-11T10:31:07.455Z,3.30
2018-10-11T10:33:36.316Z,3.60
2018-10-11T10:36:05.147Z,3.00
2018-10-11T10:38:34.019Z,2.60
2018-10-11T10:41:02.841Z,2.30
2018-10-11T10:43:31.691Z,2.00
2018-10-11T10:46:00.541Z,1.80
2018-10-11T10:48:29.414Z,1.30
2018-10-11T10:50:58.246Z,1.00
2018-10-11T10:53:27.059Z,1.00
2018-10-11T10:55:55.983Z,1.00
2018-10-11T10:58:24.823Z,1.70
2018-10-11T11:00:53.754Z,1.00
2018-10-11T11:03:22.576Z,1.00
2018-10-11T11:05:51.418Z,1.00
2018-10-11T11:08:20.264Z,1.00
2018-10-11T11:10:49.102Z,1.00
2018-10-11T11:13:18.093Z,1.00
2018-10-11T11:15:46.975Z,1.00
2018-10-11T11:18:15.821Z,1.00
2018-10-11T11:20:44.655Z,1.00
2018-10-11T11:23:13.559Z,1.00
2018-10-11T11:25:42.463Z,1.00
2018-10-11T11:28:11.283Z,1.00
2018-10-11T11:30:40.155Z,1.00
2018-10-11T11:33:09.024Z,1.00
2018-10-11T11:35:37.876Z,1.00
2018-10-11T11:38:06.719Z,1.00
2018-10-11T11:40:35.587Z,1.00
2018-10-11T11:43:04.491Z,1.00
2018-10-11T11:45:33.334Z,1.00
2018-10-11T11:48:02.166Z,1.00
2018-10-11T11:50:31.054Z,1.00
2018-10-11T11:52:59.987Z,1.00
2018-10-11T11:55:28.823Z,1.00
2018-10-11T11:57:57.736Z,1.00
2018-10-11T12:00:27.210Z,1.00
2018-10-11T12:02:57.552Z,1.00
2018-10-11T12:05:26.407Z,1.00
2018-10-11T12:07:55.256Z,1.00
2018-10-11T12:10:24.153Z,1.00
2018-10-11T12:12:56.086Z,1.00
2018-10-11T12:15:25.948Z,1.00
2018-10-11T12:17:55.906Z,1.00
2018-10-11T12:20:26.028Z,1.00
2018-10-11T12:22:56.033Z,1.00
2018-10-11T12:25:25.037Z,1.00
2018-10-11T12:27:53.926Z,1.00
2018-10-11T12:30:22.805Z,1.00
2018-10-11T12:32:51.718Z,1.00
2018-10-11T12:35:21.810Z,1.00
2018-10-11T12:37:50.836Z,1.00
2018-10-11T12:40:20.091Z,1.00
2018-10-11T12:42:49.066Z,1.00
2018-10-11T12:45:18.438Z,1.00
2018-10-11T12:47:47.239Z,1.00
2018-10-11T12:50:16.070Z,1.00
2018-10-11T12:52:44.898Z,1.00
2018-10-11T12:55:13.741Z,1.00
2018-10-11T12:57:42.736Z,1.00
2018-10-11T13:00:13.904Z,1.00
2018-10-11T13:02:43.045Z,1.00
2018-10-11T13:05:11.831Z,1.00
2018-10-11T13:07:41.098Z,1.00
2018-10-11T13:10:09.935Z,1.00
2018-10-11T13:12:38.763Z,1.00
2018-10-11T13:15:08.344Z,1.00
2018-10-11T13:17:42.814Z,1.00
2018-10-11T13:20:07.019Z,1.00
2018-10-11T13:22:35.853Z,1.00
2018-10-11T13:25:04.823Z,1.00
2018-10-11T13:27:33.698Z,1.00
2018-10-11T13:30:02.641Z,1.00
2018-10-11T13:32:31.499Z,1.00
2018-10-11T13:35:00.372Z,1.00
2018-10-11T13:37:29.203Z,1.00
2018-10-11T13:39:58.163Z,1.00
2018-10-11T13:42:26.855Z,1.00
2018-10-11T13:44:55.703Z,1.00
2018-10-11T13:47:24.616Z,1.00
2018-10-11T13:49:53.565Z,1.00
2018-10-11T13:52:22.622Z,1.00
2018-10-11T13:54:51.332Z,1.00
2018-10-11T13:57:25.121Z,1.00
2018-10-11T13:59:49.174Z,1.00
2018-10-11T14:02:18.080Z,1.00
2018-10-11T14:04:46.956Z,1.00
2018-10-11T14:07:15.811Z,1.00
2018-10-11T14:09:44.655Z,1.00
2018-10-11T14:12:13.524Z,1.00
2018-10-11T14:14:42.403Z,1.00
2018-10-11T14:17:11.306Z,1.00
2018-10-11T14:19:40.156Z,1.00
2018-10-11T14:22:08.991Z,1.00
2018-10-11T14:24:37.797Z,1.00
2018-10-11T14:27:06.727Z,1.00
2018-10-11T14:29:35.562Z,1.00
2018-10-11T14:32:04.592Z,1.00
2018-10-11T14:34:33.465Z,1.00
2018-10-11T14:37:02.420Z,1.00
2018-10-11T14:39:31.227Z,1.00
2018-10-11T14:42:00.137Z,1.00
2018-10-11T14:44:29.724Z,1.00
2018-10-11T14:46:58.575Z,1.00
2018-10-11T14:49:27.400Z,1.00
2018-10-11T14:51:56.358Z,1.00
2018-10-11T14:54:25.188Z,1.00
2018-10-11T14:56:54.078Z,1.00
2018-10-11T14:59:23.064Z,1.00
2018-10-11T15:01:51.931Z,1.00
2018-10-11T15:04:20.805Z,1.00
2018-10-11T15:06:49.642Z,1.00
2018-10-11T15:09:18.480Z,1.00
2018-10-11T15:11:47.450Z,1.00
2018-10-11T15:14:16.303Z,1.00
2018-10-11T15:16:45.161Z,1.00
2018-10-11T15:19:14.011Z,1.00
2018-10-11T15:21:42.839Z,1.00
2018-10-11T15:24:11.761Z,1.00
2018-10-11T15:26:40.591Z,1.00
2018-10-11T15:29:09.475Z,1.00
2018-10-11T15:31:38.271Z,1.00
2018-10-11T15:34:07.599Z,1.00
2018-10-11T15:36:36.439Z,1.00
2018-10-11T15:39:09.008Z,1.00
2018-10-11T15:41:37.928Z,1.00
2018-10-11T15:44:07.286Z,1.00
2018-10-11T15:46:36.222Z,1.00
2018-10-11T15:49:05.139Z,1.00
2018-10-11T15:51:33.974Z,1.00
2018-10-11T15:54:02.867Z,1.00
2018-10-11T15:56:31.758Z,1.00
2018-10-11T15:59:00.609Z,1.00
2018-10-11T16:01:29.480Z,1.00
2018-10-11T16:03:58.370Z,1.00
2018-10-11T16:06:27.211Z,1.00
2018-10-11T16:08:56.099Z,1.00
2018-10-11T16:11:24.941Z,1.00
2018-10-11T16:13:54.459Z,1.00
2018-10-11T16:16:23.276Z,1.00
2018-10-11T16:18:52.144Z,1.00
2018-10-11T16:21:20.955Z,1.00
2018-10-11T16:23:49.895Z,1.00
2018-10-11T16:26:18.780Z,1.00
2018-10-11T16:28:47.602Z,1.00
2018-10-11T16:31:16.441Z,1.00
2018-10-11T16:33:45.366Z,1.30
2018-10-11T16:36:14.202Z,1.90
2018-10-11T16:38:45.454Z,2.50
2018-10-11T16:41:21.202Z,3.10
2018-10-11T16:43:50.148Z,3.60
2018-10-11T16:46:19.008Z,4.40
2018-10-11T16:48:48.016Z,4.40
2018-10-11T16:51:16.810Z,5.00
2018-10-11T16:53:45.794Z,5.00
2018-10-11T16:56:14.717Z,5.60
2018-10-11T16:58:43.662Z,5.60
2018-10-11T17:01:12.660Z,5.50
2018-10-11T17:03:41.567Z,6.20
2018-10-11T17:06:10.421Z,6.40
2018-10-11T17:08:39.347Z,6.80
2018-10-11T17:11:08.403Z,7.20
2018-10-11T17:13:37.536Z,7.50
2018-10-11T17:16:06.370Z,7.50
2018-10-11T17:18:35.206Z,7.80
2018-10-11T17:21:04.060Z,8.10
2018-10-11T17:23:33.102Z,8.40
2018-10-11T17:26:02.056Z,9.00
2018-10-11T17:28:30.954Z,9.70
2018-10-11T17:30:59.835Z,10.00
2018-10-11T17:33:28.743Z,10.60
2018-10-11T17:35:57.619Z,10.90
2018-10-11T17:38:26.889Z,11.70
2018-10-11T17:40:55.757Z,11.90
2018-10-11T17:43:24.566Z,12.10
2018-10-11T17:48:22.672Z,12.20
2018-10-11T17:50:51.480Z,13.40
2018-10-11T17:53:20.383Z,13.60
2018-10-11T17:55:49.216Z,13.60
2018-10-11T17:58:18.048Z,13.50
2018-10-11T18:00:46.872Z,13.50
2018-10-11T18:03:15.823Z,14.10
2018-10-11T18:05:44.599Z,14.60
2018-10-11T18:08:13.549Z,14.90
2018-10-11T18:10:43.214Z,15.10
2018-10-11T18:13:12.058Z,15.60
2018-10-11T18:15:40.875Z,16.20
2018-10-11T18:18:09.703Z,16.40
2018-10-11T18:20:38.534Z,16.60
2018-10-11T18:23:07.383Z,17.00
2018-10-11T18:25:36.436Z,17.40
2018-10-11T18:28:05.451Z,17.80
2018-10-11T18:30:34.351Z,18.00
2018-10-11T18:33:03.222Z,18.50
2018-10-11T18:35:32.163Z,18.80
2018-10-11T18:38:01.011Z,19.10
2018-10-11T18:40:29.842Z,19.40
2018-10-11T18:42:58.749Z,19.60
2018-10-11T18:45:27.574Z,19.60
2018-10-11T18:47:56.439Z,20.00
2018-10-11T18:50:25.328Z,20.20
2018-10-11T18:52:54.220Z,20.10
2018-10-11T18:55:23.047Z,20.20
2018-10-11T18:57:52.006Z,20.60
2018-10-11T19:00:20.857Z,20.70
2018-10-11T19:02:49.743Z,20.90
2018-10-11T19:05:18.583Z,21.50
2018-10-11T19:07:47.514Z,21.90
2018-10-11T19:10:16.327Z,21.80
2018-10-11T19:12:45.158Z,21.80
2018-10-11T19:15:14.036Z,21.80
2018-10-11T19:17:42.935Z,21.80
2018-10-11T19:20:11.758Z,21.80
2018-10-11T19:22:40.615Z,21.80
2018-10-11T19:25:09.456Z,21.70
2018-10-11T19:27:38.284Z,21.70
2018-10-11T19:30:07.147Z,22.70
2018-10-11T19:32:35.965Z,21.70
2018-10-11T19:35:04.969Z,21.70
2018-10-11T19:37:33.862Z,21.70
2018-10-11T19:40:02.702Z,21.70
2018-10-11T19:42:31.554Z,21.70
2018-10-11T19:45:00.374Z,21.60
2018-10-11T19:47:29.246Z,21.50
2018-10-11T19:49:58.111Z,21.60
2018-10-11T19:52:26.962Z,21.50
2018-10-11T19:54:55.767Z,21.60
2018-10-11T19:57:24.750Z,21.60
2018-10-11T19:59:53.579Z,21.60
2018-10-11T20:02:22.432Z,21.50
2018-10-11T20:04:51.285Z,21.50
2018-10-11T20:07:20.110Z,21.30
2018-10-11T20:09:48.978Z,22.50
2018-10-11T20:12:17.878Z,20.90
2018-10-11T20:14:46.715Z,20.30
2018-10-11T20:17:15.585Z,20.20
2018-10-11T20:19:44.567Z,20.50
2018-10-11T20:22:14.067Z,20.20
2018-10-11T20:24:43.168Z,20.00
2018-10-11T20:27:12.015Z,19.80
2018-10-11T20:29:41.010Z,19.80
2018-10-11T20:32:10.758Z,19.50
2018-10-11T20:34:39.586Z,19.70
2018-10-11T20:37:08.422Z,19.80
2018-10-11T20:39:37.231Z,19.90
2018-10-11T20:42:06.074Z,19.90
2018-10-11T20:44:34.911Z,19.90
2018-10-11T20:47:03.756Z,19.90
2018-10-11T20:49:32.769Z,19.90
2018-10-11T20:52:01.571Z,19.80
2018-10-11T20:54:30.398Z,19.60
2018-10-11T20:56:59.256Z,19.80
2018-10-11T20:59:28.215Z,19.80
2018-10-11T21:01:57.027Z,19.80
2018-10-11T21:04:25.871Z,19.90
2018-10-11T21:06:54.698Z,20.00
2018-10-11T21:09:23.519Z,20.00
2018-10-11T21:11:52.503Z,19.90
2018-10-11T21:14:21.350Z,19.90
2018-10-11T21:16:50.236Z,20.00
2018-10-11T21:19:19.079Z,20.90
2018-10-11T21:21:47.907Z,19.60
2018-10-11T21:24:16.850Z,19.60
2018-10-11T21:26:45.722Z,19.70
2018-10-11T21:29:14.569Z,19.70
2018-10-11T21:31:43.435Z,19.90
2018-10-11T21:34:12.421Z,19.80
2018-10-11T21:36:41.197Z,19.70
2018-10-11T21:39:12.106Z,20.40
2018-10-11T21:41:41.423Z,19.80
2018-10-11T21:44:10.491Z,19.70
2018-10-11T21:46:39.479Z,19.40
2018-10-11T21:49:08.324Z,19.50
2018-10-11T21:51:37.196Z,19.50
2018-10-11T21:54:06.021Z,19.40
2018-10-11T21:56:34.940Z,19.20
2018-10-11T21:59:03.859Z,19.00
2018-10-11T22:01:32.675Z,19.10
2018-10-11T22:04:01.511Z,19.20
2018-10-11T22:06:30.346Z,19.30
2018-10-11T22:08:59.182Z,19.30
2018-10-11T22:11:28.009Z,19.40
2018-10-11T22:13:56.839Z,20.40
2018-10-11T22:16:25.688Z,19.50
2018-10-11T22:18:54.537Z,19.70
2018-10-11T22:21:23.399Z,19.70
2018-10-11T22:23:52.322Z,19.50
2018-10-11T22:26:21.156Z,19.50
2018-10-11T22:28:50.100Z,19.60
2018-10-11T22:31:18.917Z,19.50
2018-10-11T22:33:47.730Z,19.40
2018-10-11T22:36:16.570Z,19.40
2018-10-11T22:38:45.387Z,19.40
2018-10-11T22:41:14.250Z,20.20
2018-10-11T22:43:43.332Z,19.20
2018-10-11T22:46:12.935Z,19.10
2018-10-11T22:48:42.351Z,19.30
2018-10-11T22:51:11.644Z,19.20
2018-10-11T22:53:40.652Z,19.40
2018-10-11T22:56:09.487Z,20.10
2018-10-11T22:58:38.331Z,19.40
2018-10-11T23:01:07.247Z,19.50
2018-10-11T23:03:36.099Z,19.70
2018-10-11T23:06:04.959Z,19.70
2018-10-11T23:08:33.942Z,19.90
2018-10-11T23:11:02.838Z,20.20
2018-10-11T23:13:31.763Z,20.50
2018-10-11T23:16:00.587Z,20.50
2018-10-11T23:18:29.413Z,20.70
2018-10-11T23:20:59.703Z,20.50
2018-10-11T23:23:28.537Z,20.60
2018-10-11T23:25:57.363Z,20.40
2018-10-11T23:28:26.255Z,20.60
2018-10-11T23:30:55.117Z,20.80
2018-10-11T23:33:23.978Z,20.80
2018-10-11T23:35:52.848Z,20.80
2018-10-11T23:38:21.786Z,20.80
2018-10-11T23:40:50.710Z,20.80
2018-10-11T23:43:19.547Z,20.70
2018-10-11T23:45:48.354Z,20.70
2018-10-11T23:48:17.196Z,20.60
2018-10-11T23:50:46.015Z,21.20
2018-10-11T23:53:14.854Z,21.70
2018-10-11T23:55:43.694Z,22.70
2018-10-11T23:58:12.503Z,22.00
